sensor_id;sensor_type;location;lat;lon;timestamp;pressure;altitude;pressure_sealevel;temperature;humidity
77521;BME280;66633;47.628;19.158;2023-09-12T00:02:04;99626.47;;;30.98;29.82
77521;BME280;66633;47.628;19.158;2023-09-12T00:04:30;99626.47;;;30.98;29.82
77521;BME280;66633;47.628;19.158;2023-09-12T00:06:55;99626.47;;;30.98;29.82
77521;BME280;66633;47.628;19.158;2023-09-12T00:09:21;99626.47;;;30.98;29.82
77521;BME280;66633;47.628;19.158;2023-09-12T00:11:46;99626.47;;;30.98;29.82
77521;BME280;66633;47.628;19.158;2023-09-12T00:14:16;99626.47;;;30.98;29.82
77521;BME280;66633;47.628;19.158;2023-09-12T00:16:42;99626.47;;;30.98;29.82
77521;BME280;66633;47.628;19.158;2023-09-12T00:19:07;99626.47;;;30.98;29.82
77521;BME280;66633;47.628;19.158;2023-09-12T00:21:33;99626.47;;;30.98;29.82
77521;BME280;66633;47.628;19.158;2023-09-12T00:23:58;99626.47;;;30.98;29.82
77521;BME280;66633;47.628;19.158;2023-09-12T00:26:23;99626.47;;;30.98;29.82
77521;BME280;66633;47.628;19.158;2023-09-12T00:28:49;99626.47;;;30.98;29.82
77521;BME280;66633;47.628;19.158;2023-09-12T00:31:14;99626.47;;;30.98;29.82
77521;BME280;66633;47.628;19.158;2023-09-12T00:33:40;99626.47;;;30.98;29.82
77521;BME280;66633;47.628;19.158;2023-09-12T00:36:09;99626.47;;;30.98;29.82
77521;BME280;66633;47.628;19.158;2023-09-12T00:38:34;99626.47;;;30.98;29.82
77521;BME280;66633;47.628;19.158;2023-09-12T00:41:00;99626.47;;;30.98;29.82
77521;BME280;66633;47.628;19.158;2023-09-12T00:43:25;99626.47;;;30.98;29.82
77521;BME280;66633;47.628;19.158;2023-09-12T00:45:51;99626.47;;;30.98;29.82
77521;BME280;66633;47.628;19.158;2023-09-12T00:48:17;99626.47;;;30.98;29.82
77521;BME280;66633;47.628;19.158;2023-09-12T00:50:44;99626.47;;;30.98;29.82
77521;BME280;66633;47.628;19.158;2023-09-12T00:53:11;99626.47;;;30.98;29.82
77521;BME280;66633;47.628;19.158;2023-09-12T00:55:40;99626.47;;;30.98;29.82
77521;BME280;66633;47.628;19.158;2023-09-12T00:58:07;99626.47;;;30.98;29.82
77521;BME280;66633;47.628;19.158;2023-09-12T01:00:33;99626.47;;;30.98;29.82
77521;BME280;66633;47.628;19.158;2023-09-12T01:02:59;99626.47;;;30.98;29.82
77521;BME280;66633;47.628;19.158;2023-09-12T01:05:24;99626.47;;;30.98;29.82
77521;BME280;66633;47.628;19.158;2023-09-12T01:07:50;99626.47;;;30.98;29.82
77521;BME280;66633;47.628;19.158;2023-09-12T01:10:15;99626.47;;;30.98;29.82
77521;BME280;66633;47.628;19.158;2023-09-12T01:12:41;99626.47;;;30.98;29.82
77521;BME280;66633;47.628;19.158;2023-09-12T01:15:07;99626.47;;;30.98;29.82
77521;BME280;66633;47.628;19.158;2023-09-12T01:17:40;99626.47;;;30.98;29.82
77521;BME280;66633;47.628;19.158;2023-09-12T01:20:08;99626.47;;;30.98;29.82
77521;BME280;66633;47.628;19.158;2023-09-12T01:23:35;99626.47;;;30.98;29.82
77521;BME280;66633;47.628;19.158;2023-09-12T01:28:24;99626.47;;;30.98;29.82
77521;BME280;66633;47.628;19.158;2023-09-12T01:30:53;99626.47;;;30.98;29.82
77521;BME280;66633;47.628;19.158;2023-09-12T01:33:20;99626.47;;;30.98;29.82
77521;BME280;66633;47.628;19.158;2023-09-12T01:35:45;99626.47;;;30.98;29.82
77521;BME280;66633;47.628;19.158;2023-09-12T01:38:12;99626.47;;;30.98;29.82
77521;BME280;66633;47.628;19.158;2023-09-12T01:40:51;99626.47;;;30.98;29.82
77521;BME280;66633;47.628;19.158;2023-09-12T01:43:20;99626.47;;;30.98;29.82
77521;BME280;66633;47.628;19.158;2023-09-12T01:45:48;99626.47;;;30.98;29.82
77521;BME280;66633;47.628;19.158;2023-09-12T01:48:20;99626.47;;;30.98;29.82
77521;BME280;66633;47.628;19.158;2023-09-12T01:50:47;99626.47;;;30.98;29.82
77521;BME280;66633;47.628;19.158;2023-09-12T01:53:12;99626.47;;;30.98;29.82
77521;BME280;66633;47.628;19.158;2023-09-12T01:55:41;99626.47;;;30.98;29.82
77521;BME280;66633;47.628;19.158;2023-09-12T01:58:07;99626.47;;;30.98;29.82
77521;BME280;66633;47.628;19.158;2023-09-12T02:00:33;99626.47;;;30.98;29.82
77521;BME280;66633;47.628;19.158;2023-09-12T02:02:58;99626.47;;;30.98;29.82
77521;BME280;66633;47.628;19.158;2023-09-12T02:05:24;99626.47;;;30.98;29.82
77521;BME280;66633;47.628;19.158;2023-09-12T02:07:49;99626.47;;;30.98;29.82
77521;BME280;66633;47.628;19.158;2023-09-12T02:10:15;99626.47;;;30.98;29.82
77521;BME280;66633;47.628;19.158;2023-09-12T02:12:41;99626.47;;;30.98;29.82
77521;BME280;66633;47.628;19.158;2023-09-12T02:15:07;99626.47;;;30.98;29.82
77521;BME280;66633;47.628;19.158;2023-09-12T02:17:33;99626.47;;;30.98;29.82
77521;BME280;66633;47.628;19.158;2023-09-12T02:19:58;99626.47;;;30.98;29.82
77521;BME280;66633;47.628;19.158;2023-09-12T02:22:23;99626.47;;;30.98;29.82
77521;BME280;66633;47.628;19.158;2023-09-12T02:24:49;99626.47;;;30.98;29.82
77521;BME280;66633;47.628;19.158;2023-09-12T02:27:15;99626.47;;;30.98;29.82
77521;BME280;66633;47.628;19.158;2023-09-12T02:29:41;99626.47;;;30.98;29.82
77521;BME280;66633;47.628;19.158;2023-09-12T02:32:07;99626.47;;;30.98;29.82
77521;BME280;66633;47.628;19.158;2023-09-12T02:34:33;99626.47;;;30.98;29.82
77521;BME280;66633;47.628;19.158;2023-09-12T02:36:59;99626.47;;;30.98;29.82
77521;BME280;66633;47.628;19.158;2023-09-12T02:39:24;99626.47;;;30.98;29.82
77521;BME280;66633;47.628;19.158;2023-09-12T02:41:50;99626.47;;;30.98;29.82
77521;BME280;66633;47.628;19.158;2023-09-12T02:44:15;99626.47;;;30.98;29.82
77521;BME280;66633;47.628;19.158;2023-09-12T02:46:41;99626.47;;;30.98;29.82
77521;BME280;66633;47.628;19.158;2023-09-12T02:49:07;99626.47;;;30.98;29.82
77521;BME280;66633;47.628;19.158;2023-09-12T02:51:32;99626.47;;;30.98;29.82
77521;BME280;66633;47.628;19.158;2023-09-12T02:53:57;99626.47;;;30.98;29.82
77521;BME280;66633;47.628;19.158;2023-09-12T02:56:23;99626.47;;;30.98;29.82
77521;BME280;66633;47.628;19.158;2023-09-12T02:58:49;99626.47;;;30.98;29.82
77521;BME280;66633;47.628;19.158;2023-09-12T03:01:19;99626.47;;;30.98;29.82
77521;BME280;66633;47.628;19.158;2023-09-12T03:03:50;99626.47;;;30.98;29.82
77521;BME280;66633;47.628;19.158;2023-09-12T03:06:16;99626.47;;;30.98;29.82
77521;BME280;66633;47.628;19.158;2023-09-12T03:08:44;99626.47;;;30.98;29.82
77521;BME280;66633;47.628;19.158;2023-09-12T03:11:10;99626.47;;;30.98;29.82
77521;BME280;66633;47.628;19.158;2023-09-12T03:13:40;99626.47;;;30.98;29.82
77521;BME280;66633;47.628;19.158;2023-09-12T03:16:12;99626.47;;;30.98;29.82
77521;BME280;66633;47.628;19.158;2023-09-12T03:18:38;99626.47;;;30.98;29.82
77521;BME280;66633;47.628;19.158;2023-09-12T03:21:04;99626.47;;;30.98;29.82
77521;BME280;66633;47.628;19.158;2023-09-12T03:23:30;99626.47;;;30.98;29.82
77521;BME280;66633;47.628;19.158;2023-09-12T03:26:03;99626.47;;;30.98;29.82
77521;BME280;66633;47.628;19.158;2023-09-12T03:28:29;99626.47;;;30.98;29.82
77521;BME280;66633;47.628;19.158;2023-09-12T03:31:07;99626.47;;;30.98;29.82
77521;BME280;66633;47.628;19.158;2023-09-12T03:33:33;99626.47;;;30.98;29.82
77521;BME280;66633;47.628;19.158;2023-09-12T03:35:58;99626.47;;;30.98;29.82
77521;BME280;66633;47.628;19.158;2023-09-12T03:38:24;99626.47;;;30.98;29.82
77521;BME280;66633;47.628;19.158;2023-09-12T03:40:50;99626.47;;;30.98;29.82
77521;BME280;66633;47.628;19.158;2023-09-12T03:43:15;99626.47;;;30.98;29.82
77521;BME280;66633;47.628;19.158;2023-09-12T03:45:41;99626.47;;;30.98;29.82
77521;BME280;66633;47.628;19.158;2023-09-12T03:48:06;99626.47;;;30.98;29.82
77521;BME280;66633;47.628;19.158;2023-09-12T03:50:31;99626.47;;;30.98;29.82
77521;BME280;66633;47.628;19.158;2023-09-12T03:52:57;99626.47;;;30.98;29.82
77521;BME280;66633;47.628;19.158;2023-09-12T03:55:22;99626.47;;;30.98;29.82
77521;BME280;66633;47.628;19.158;2023-09-12T03:57:48;99626.47;;;30.98;29.82
77521;BME280;66633;47.628;19.158;2023-09-12T04:00:14;99626.47;;;30.98;29.82
77521;BME280;66633;47.628;19.158;2023-09-12T04:02:39;99626.47;;;30.98;29.82
77521;BME280;66633;47.628;19.158;2023-09-12T04:05:05;99626.47;;;30.98;29.82
77521;BME280;66633;47.628;19.158;2023-09-12T04:07:31;99626.47;;;30.98;29.82
77521;BME280;66633;47.628;19.158;2023-09-12T04:09:57;99626.47;;;30.98;29.82
77521;BME280;66633;47.628;19.158;2023-09-12T04:12:23;99626.47;;;30.98;29.82
77521;BME280;66633;47.628;19.158;2023-09-12T04:14:52;99626.47;;;30.98;29.82
77521;BME280;66633;47.628;19.158;2023-09-12T04:17:17;99626.47;;;30.98;29.82
77521;BME280;66633;47.628;19.158;2023-09-12T04:19:43;99626.47;;;30.98;29.82
77521;BME280;66633;47.628;19.158;2023-09-12T04:22:09;99626.47;;;30.98;29.82
77521;BME280;66633;47.628;19.158;2023-09-12T04:24:34;99626.47;;;30.98;29.82
77521;BME280;66633;47.628;19.158;2023-09-12T04:27:00;99626.47;;;30.98;29.82
77521;BME280;66633;47.628;19.158;2023-09-12T04:29:25;99626.47;;;30.98;29.82
77521;BME280;66633;47.628;19.158;2023-09-12T04:31:52;99626.47;;;30.98;29.82
77521;BME280;66633;47.628;19.158;2023-09-12T04:34:24;99626.47;;;30.98;29.82
77521;BME280;66633;47.628;19.158;2023-09-12T04:36:49;99626.47;;;30.98;29.82
77521;BME280;66633;47.628;19.158;2023-09-12T04:39:15;99626.47;;;30.98;29.82
77521;BME280;66633;47.628;19.158;2023-09-12T04:41:40;99626.47;;;30.98;29.82
77521;BME280;66633;47.628;19.158;2023-09-12T04:44:05;99626.47;;;30.98;29.82
77521;BME280;66633;47.628;19.158;2023-09-12T04:46:31;99626.47;;;30.98;29.82
77521;BME280;66633;47.628;19.158;2023-09-12T04:48:56;99626.47;;;30.98;29.82
77521;BME280;66633;47.628;19.158;2023-09-12T04:51:22;99626.47;;;30.98;29.82
77521;BME280;66633;47.628;19.158;2023-09-12T04:53:47;99626.47;;;30.98;29.82
77521;BME280;66633;47.628;19.158;2023-09-12T04:56:17;99626.47;;;30.98;29.82
77521;BME280;66633;47.628;19.158;2023-09-12T04:58:42;99626.47;;;30.98;29.82
77521;BME280;66633;47.628;19.158;2023-09-12T05:01:08;99626.47;;;30.98;29.82
77521;BME280;66633;47.628;19.158;2023-09-12T05:03:34;99626.47;;;30.98;29.82
77521;BME280;66633;47.628;19.158;2023-09-12T05:06:00;99626.47;;;30.98;29.82
77521;BME280;66633;47.628;19.158;2023-09-12T05:08:25;99626.47;;;30.98;29.82
77521;BME280;66633;47.628;19.158;2023-09-12T05:10:51;99626.47;;;30.98;29.82
77521;BME280;66633;47.628;19.158;2023-09-12T05:13:16;99626.47;;;30.98;29.82
77521;BME280;66633;47.628;19.158;2023-09-12T05:15:43;99626.47;;;30.98;29.82
77521;BME280;66633;47.628;19.158;2023-09-12T05:18:08;99626.47;;;30.98;29.82
77521;BME280;66633;47.628;19.158;2023-09-12T05:20:34;99626.47;;;30.98;29.82
77521;BME280;66633;47.628;19.158;2023-09-12T05:23:00;99626.47;;;30.98;29.82
77521;BME280;66633;47.628;19.158;2023-09-12T05:25:28;99626.47;;;30.98;29.82
77521;BME280;66633;47.628;19.158;2023-09-12T05:27:54;99626.47;;;30.98;29.82
77521;BME280;66633;47.628;19.158;2023-09-12T05:30:19;99626.47;;;30.98;29.82
77521;BME280;66633;47.628;19.158;2023-09-12T05:32:45;99626.47;;;30.98;29.82
77521;BME280;66633;47.628;19.158;2023-09-12T05:35:10;99626.47;;;30.98;29.82
77521;BME280;66633;47.628;19.158;2023-09-12T05:37:36;99626.47;;;30.98;29.82
77521;BME280;66633;47.628;19.158;2023-09-12T05:40:02;99626.47;;;30.98;29.82
77521;BME280;66633;47.628;19.158;2023-09-12T05:42:28;99626.47;;;30.98;29.82
77521;BME280;66633;47.628;19.158;2023-09-12T05:44:53;99626.47;;;30.98;29.82
77521;BME280;66633;47.628;19.158;2023-09-12T05:47:20;99626.47;;;30.98;29.82
77521;BME280;66633;47.628;19.158;2023-09-12T05:49:45;99626.47;;;30.98;29.82
77521;BME280;66633;47.628;19.158;2023-09-12T05:52:11;99626.47;;;30.98;29.82
77521;BME280;66633;47.628;19.158;2023-09-12T05:54:37;99626.47;;;30.98;29.82
77521;BME280;66633;47.628;19.158;2023-09-12T05:57:02;99626.47;;;30.98;29.82
77521;BME280;66633;47.628;19.158;2023-09-12T05:59:28;99626.47;;;30.98;29.82
77521;BME280;66633;47.628;19.158;2023-09-12T06:01:53;99626.47;;;30.98;29.82
77521;BME280;66633;47.628;19.158;2023-09-12T06:04:19;99626.47;;;30.98;29.82
77521;BME280;66633;47.628;19.158;2023-09-12T06:06:46;99626.47;;;30.98;29.82
77521;BME280;66633;47.628;19.158;2023-09-12T06:09:11;99626.47;;;30.98;29.82
77521;BME280;66633;47.628;19.158;2023-09-12T06:11:37;99626.47;;;30.98;29.82
77521;BME280;66633;47.628;19.158;2023-09-12T06:14:02;99626.47;;;30.98;29.82
77521;BME280;66633;47.628;19.158;2023-09-12T06:16:28;99626.47;;;30.98;29.82
77521;BME280;66633;47.628;19.158;2023-09-12T06:18:54;99626.47;;;30.98;29.82
77521;BME280;66633;47.628;19.158;2023-09-12T06:21:19;99626.47;;;30.98;29.82
77521;BME280;66633;47.628;19.158;2023-09-12T06:23:47;99626.47;;;30.98;29.82
77521;BME280;66633;47.628;19.158;2023-09-12T06:26:12;99626.47;;;30.98;29.82
77521;BME280;66633;47.628;19.158;2023-09-12T06:28:38;99626.47;;;30.98;29.82
77521;BME280;66633;47.628;19.158;2023-09-12T06:31:03;99626.47;;;30.98;29.82
77521;BME280;66633;47.628;19.158;2023-09-12T06:33:29;99626.47;;;30.98;29.82
77521;BME280;66633;47.628;19.158;2023-09-12T06:35:54;99626.47;;;30.98;29.82
77521;BME280;66633;47.628;19.158;2023-09-12T06:38:22;99626.47;;;30.98;29.82
77521;BME280;66633;47.628;19.158;2023-09-12T06:40:47;99626.47;;;30.98;29.82
77521;BME280;66633;47.628;19.158;2023-09-12T06:43:13;99626.47;;;30.98;29.82
77521;BME280;66633;47.628;19.158;2023-09-12T06:45:42;99626.47;;;30.98;29.82
77521;BME280;66633;47.628;19.158;2023-09-12T06:48:08;99626.47;;;30.98;29.82
77521;BME280;66633;47.628;19.158;2023-09-12T06:50:34;99626.47;;;30.98;29.82
77521;BME280;66633;47.628;19.158;2023-09-12T06:52:59;99626.47;;;30.98;29.82
77521;BME280;66633;47.628;19.158;2023-09-12T06:55:25;99626.47;;;30.98;29.82
77521;BME280;66633;47.628;19.158;2023-09-12T06:57:50;99626.47;;;30.98;29.82
77521;BME280;66633;47.628;19.158;2023-09-12T07:00:16;99626.47;;;30.98;29.82
77521;BME280;66633;47.628;19.158;2023-09-12T07:02:42;99626.47;;;30.98;29.82
77521;BME280;66633;47.628;19.158;2023-09-12T07:05:08;99626.47;;;30.98;29.82
77521;BME280;66633;47.628;19.158;2023-09-12T07:07:34;99626.47;;;30.98;29.82
77521;BME280;66633;47.628;19.158;2023-09-12T07:09:59;99626.47;;;30.98;29.82
77521;BME280;66633;47.628;19.158;2023-09-12T07:12:25;99626.47;;;30.98;29.82
77521;BME280;66633;47.628;19.158;2023-09-12T07:14:51;99626.47;;;30.98;29.82
77521;BME280;66633;47.628;19.158;2023-09-12T07:17:17;99626.47;;;30.98;29.82
77521;BME280;66633;47.628;19.158;2023-09-12T07:19:43;99626.47;;;30.98;29.82
77521;BME280;66633;47.628;19.158;2023-09-12T07:22:08;99626.47;;;30.98;29.82
77521;BME280;66633;47.628;19.158;2023-09-12T07:24:34;99626.47;;;30.98;29.82
77521;BME280;66633;47.628;19.158;2023-09-12T07:26:59;99626.47;;;30.98;29.82
77521;BME280;66633;47.628;19.158;2023-09-12T07:29:24;99626.47;;;30.98;29.82
77521;BME280;66633;47.628;19.158;2023-09-12T07:31:53;99626.47;;;30.98;29.82
77521;BME280;66633;47.628;19.158;2023-09-12T07:34:20;99626.47;;;30.98;29.82
77521;BME280;66633;47.628;19.158;2023-09-12T07:36:46;99626.47;;;30.98;29.82
77521;BME280;66633;47.628;19.158;2023-09-12T07:39:11;99626.47;;;30.98;29.82
77521;BME280;66633;47.628;19.158;2023-09-12T07:41:37;99626.47;;;30.98;29.82
77521;BME280;66633;47.628;19.158;2023-09-12T07:44:02;99626.47;;;30.98;29.82
77521;BME280;66633;47.628;19.158;2023-09-12T07:46:30;99626.47;;;30.98;29.82
77521;BME280;66633;47.628;19.158;2023-09-12T07:48:55;99626.47;;;30.98;29.82
77521;BME280;66633;47.628;19.158;2023-09-12T07:51:23;99626.47;;;30.98;29.82
77521;BME280;66633;47.628;19.158;2023-09-12T07:53:49;99626.47;;;30.98;29.82
77521;BME280;66633;47.628;19.158;2023-09-12T07:56:14;99626.47;;;30.98;29.82
77521;BME280;66633;47.628;19.158;2023-09-12T07:58:40;99626.47;;;30.98;29.82
77521;BME280;66633;47.628;19.158;2023-09-12T08:01:09;99626.47;;;30.98;29.82
77521;BME280;66633;47.628;19.158;2023-09-12T08:03:35;99626.47;;;30.98;29.82
77521;BME280;66633;47.628;19.158;2023-09-12T08:06:01;99626.47;;;30.98;29.82
77521;BME280;66633;47.628;19.158;2023-09-12T08:08:28;99626.47;;;30.98;29.82
77521;BME280;66633;47.628;19.158;2023-09-12T08:10:53;99626.47;;;30.98;29.82
77521;BME280;66633;47.628;19.158;2023-09-12T08:13:19;99626.47;;;30.98;29.82
77521;BME280;66633;47.628;19.158;2023-09-12T08:15:44;99626.47;;;30.98;29.82
77521;BME280;66633;47.628;19.158;2023-09-12T08:18:10;99626.47;;;30.98;29.82
77521;BME280;66633;47.628;19.158;2023-09-12T08:20:35;99626.47;;;30.98;29.82
77521;BME280;66633;47.628;19.158;2023-09-12T08:23:01;99626.47;;;30.98;29.82
77521;BME280;66633;47.628;19.158;2023-09-12T08:25:26;99626.47;;;30.98;29.82
77521;BME280;66633;47.628;19.158;2023-09-12T08:27:52;99626.47;;;30.98;29.82
77521;BME280;66633;47.628;19.158;2023-09-12T08:30:17;99626.47;;;30.98;29.82
77521;BME280;66633;47.628;19.158;2023-09-12T08:32:43;99626.47;;;30.98;29.82
77521;BME280;66633;47.628;19.158;2023-09-12T08:35:12;99626.47;;;30.98;29.82
77521;BME280;66633;47.628;19.158;2023-09-12T08:37:41;99626.47;;;30.98;29.82
77521;BME280;66633;47.628;19.158;2023-09-12T08:40:08;99626.47;;;30.98;29.82
77521;BME280;66633;47.628;19.158;2023-09-12T08:42:42;99626.47;;;30.98;29.82
77521;BME280;66633;47.628;19.158;2023-09-12T08:45:15;99626.47;;;30.98;29.82
77521;BME280;66633;47.628;19.158;2023-09-12T08:47:43;99626.47;;;30.98;29.82
77521;BME280;66633;47.628;19.158;2023-09-12T08:50:14;99626.47;;;30.98;29.82
77521;BME280;66633;47.628;19.158;2023-09-12T08:52:40;99626.47;;;30.98;29.82
77521;BME280;66633;47.628;19.158;2023-09-12T08:55:09;99626.47;;;30.98;29.82
77521;BME280;66633;47.628;19.158;2023-09-12T08:57:41;99626.47;;;30.98;29.82
77521;BME280;66633;47.628;19.158;2023-09-12T09:00:08;99626.47;;;30.98;29.82
77521;BME280;66633;47.628;19.158;2023-09-12T09:02:39;99626.47;;;30.98;29.82
77521;BME280;66633;47.628;19.158;2023-09-12T09:05:06;99626.47;;;30.98;29.82
77521;BME280;66633;47.628;19.158;2023-09-12T09:07:33;99626.47;;;30.98;29.82
77521;BME280;66633;47.628;19.158;2023-09-12T09:10:02;99626.47;;;30.98;29.82
77521;BME280;66633;47.628;19.158;2023-09-12T09:12:29;99626.47;;;30.98;29.82
77521;BME280;66633;47.628;19.158;2023-09-12T09:14:55;99626.47;;;30.98;29.82
77521;BME280;66633;47.628;19.158;2023-09-12T09:17:20;99626.47;;;30.98;29.82
77521;BME280;66633;47.628;19.158;2023-09-12T09:19:45;99626.47;;;30.98;29.82
77521;BME280;66633;47.628;19.158;2023-09-12T09:22:11;99626.47;;;30.98;29.82
77521;BME280;66633;47.628;19.158;2023-09-12T09:24:37;99626.47;;;30.98;29.82
77521;BME280;66633;47.628;19.158;2023-09-12T09:27:02;99626.47;;;30.98;29.82
77521;BME280;66633;47.628;19.158;2023-09-12T09:29:29;99626.47;;;30.98;29.82
77521;BME280;66633;47.628;19.158;2023-09-12T09:31:58;99626.47;;;30.98;29.82
77521;BME280;66633;47.628;19.158;2023-09-12T09:34:24;99626.47;;;30.98;29.82
77521;BME280;66633;47.628;19.158;2023-09-12T09:36:54;99626.47;;;30.98;29.82
77521;BME280;66633;47.628;19.158;2023-09-12T09:39:21;99626.47;;;30.98;29.82
77521;BME280;66633;47.628;19.158;2023-09-12T09:41:52;99626.47;;;30.98;29.82
77521;BME280;66633;47.628;19.158;2023-09-12T09:44:18;99626.47;;;30.98;29.82
77521;BME280;66633;47.628;19.158;2023-09-12T09:46:44;99626.47;;;30.98;29.82
77521;BME280;66633;47.628;19.158;2023-09-12T09:49:19;99626.47;;;30.98;29.82
77521;BME280;66633;47.628;19.158;2023-09-12T09:51:45;99626.47;;;30.98;29.82
77521;BME280;66633;47.628;19.158;2023-09-12T09:54:14;99626.47;;;30.98;29.82
77521;BME280;66633;47.628;19.158;2023-09-12T09:56:52;99626.47;;;30.98;29.82
77521;BME280;66633;47.628;19.158;2023-09-12T09:59:21;99626.47;;;30.98;29.82
77521;BME280;66633;47.628;19.158;2023-09-12T10:01:48;99626.47;;;30.98;29.82
77521;BME280;66633;47.628;19.158;2023-09-12T10:04:14;99626.47;;;30.98;29.82
77521;BME280;66633;47.628;19.158;2023-09-12T10:06:43;99626.47;;;30.98;29.82
77521;BME280;66633;47.628;19.158;2023-09-12T10:09:13;99626.47;;;30.98;29.82
77521;BME280;66633;47.628;19.158;2023-09-12T10:11:40;99626.47;;;30.98;29.82
77521;BME280;66633;47.628;19.158;2023-09-12T10:14:07;99626.47;;;30.98;29.82
77521;BME280;66633;47.628;19.158;2023-09-12T10:16:34;99626.47;;;30.98;29.82
77521;BME280;66633;47.628;19.158;2023-09-12T10:19:16;99626.47;;;30.98;29.82
77521;BME280;66633;47.628;19.158;2023-09-12T10:21:58;99626.47;;;30.98;29.82
77521;BME280;66633;47.628;19.158;2023-09-12T10:24:27;99626.47;;;30.98;29.82
77521;BME280;66633;47.628;19.158;2023-09-12T10:26:55;99626.47;;;30.98;29.82
77521;BME280;66633;47.628;19.158;2023-09-12T10:29:21;99626.47;;;30.98;29.82
77521;BME280;66633;47.628;19.158;2023-09-12T10:31:48;99626.47;;;30.98;29.82
77521;BME280;66633;47.628;19.158;2023-09-12T10:34:14;99626.47;;;30.98;29.82
77521;BME280;66633;47.628;19.158;2023-09-12T10:36:41;99626.47;;;30.98;29.82
77521;BME280;66633;47.628;19.158;2023-09-12T10:39:07;99626.47;;;30.98;29.82
77521;BME280;66633;47.628;19.158;2023-09-12T10:41:37;99626.47;;;30.98;29.82
77521;BME280;66633;47.628;19.158;2023-09-12T10:44:07;99626.47;;;30.98;29.82
77521;BME280;66633;47.628;19.158;2023-09-12T10:46:36;99626.47;;;30.98;29.82
77521;BME280;66633;47.628;19.158;2023-09-12T10:49:05;99626.47;;;30.98;29.82
77521;BME280;66633;47.628;19.158;2023-09-12T10:51:31;99626.47;;;30.98;29.82
77521;BME280;66633;47.628;19.158;2023-09-12T10:53:57;99626.47;;;30.98;29.82
77521;BME280;66633;47.628;19.158;2023-09-12T10:56:23;99626.47;;;30.98;29.82
77521;BME280;66633;47.628;19.158;2023-09-12T11:01:33;99626.47;;;30.98;29.82
77521;BME280;66633;47.628;19.158;2023-09-12T11:06:47;99626.47;;;30.98;29.82
77521;BME280;66633;47.628;19.158;2023-09-12T11:09:26;99626.47;;;30.98;29.82
77521;BME280;66633;47.628;19.158;2023-09-12T11:12:02;99626.47;;;30.98;29.82
77521;BME280;66633;47.628;19.158;2023-09-12T11:14:28;99626.47;;;30.98;29.82
77521;BME280;66633;47.628;19.158;2023-09-12T11:19:46;99626.47;;;30.98;29.82
77521;BME280;66633;47.628;19.158;2023-09-12T11:22:29;99626.47;;;30.98;29.82
77521;BME280;66633;47.628;19.158;2023-09-12T11:24:56;99626.47;;;30.98;29.82
77521;BME280;66633;47.628;19.158;2023-09-12T11:27:31;99626.47;;;30.98;29.82
77521;BME280;66633;47.628;19.158;2023-09-12T11:30:04;99626.47;;;30.98;29.82
77521;BME280;66633;47.628;19.158;2023-09-12T11:32:35;99626.47;;;30.98;29.82
77521;BME280;66633;47.628;19.158;2023-09-12T11:35:06;99626.47;;;30.98;29.82
77521;BME280;66633;47.628;19.158;2023-09-12T11:37:32;99626.47;;;30.98;29.82
77521;BME280;66633;47.628;19.158;2023-09-12T11:39:58;99626.47;;;30.98;29.82
77521;BME280;66633;47.628;19.158;2023-09-12T11:42:24;99626.47;;;30.98;29.82
77521;BME280;66633;47.628;19.158;2023-09-12T11:44:53;99626.47;;;30.98;29.82
77521;BME280;66633;47.628;19.158;2023-09-12T11:47:19;99626.47;;;30.98;29.82
77521;BME280;66633;47.628;19.158;2023-09-12T11:49:45;99626.47;;;30.98;29.82
77521;BME280;66633;47.628;19.158;2023-09-12T11:52:12;99646.41;;;31.87;27.66
77521;BME280;66633;47.628;19.158;2023-09-12T11:54:41;99636.47;;;31.91;28.96
77521;BME280;66633;47.628;19.158;2023-09-12T11:57:08;99635.66;;;31.90;28.45
77521;BME280;66633;47.628;19.158;2023-09-12T11:59:37;99647.75;;;31.94;28.21
77521;BME280;66633;47.628;19.158;2023-09-12T12:02:06;99641.78;;;32.11;28.80
77521;BME280;66633;47.628;19.158;2023-09-12T12:04:32;99632.81;;;32.00;28.60
77521;BME280;66633;47.628;19.158;2023-09-12T12:06:57;99630.72;;;32.16;28.03
77521;BME280;66633;47.628;19.158;2023-09-12T12:09:23;99634.00;;;32.18;28.28
77521;BME280;66633;47.628;19.158;2023-09-12T12:11:49;99634.69;;;32.05;28.02
77521;BME280;66633;47.628;19.158;2023-09-12T12:14:16;99639.69;;;32.26;28.17
77521;BME280;66633;47.628;19.158;2023-09-12T12:16:43;99625.59;;;32.33;27.99
77521;BME280;66633;47.628;19.158;2023-09-12T12:19:10;99629.84;;;32.44;27.74
77521;BME280;66633;47.628;19.158;2023-09-12T12:21:37;99631.97;;;32.52;27.61
77521;BME280;66633;47.628;19.158;2023-09-12T12:24:03;99630.56;;;32.55;27.14
77521;BME280;66633;47.628;19.158;2023-09-12T12:26:30;99619.91;;;32.24;27.01
77521;BME280;66633;47.628;19.158;2023-09-12T12:28:56;99621.47;;;32.30;27.05
77521;BME280;66633;47.628;19.158;2023-09-12T12:31:22;99622.16;;;31.94;27.64
77521;BME280;66633;47.628;19.158;2023-09-12T12:33:52;99614.72;;;31.65;27.51
77521;BME280;66633;47.628;19.158;2023-09-12T12:36:18;99614.72;;;31.65;27.51
77521;BME280;66633;47.628;19.158;2023-09-12T12:38:46;99614.72;;;31.65;27.51
77521;BME280;66633;47.628;19.158;2023-09-12T12:41:16;99614.72;;;31.65;27.51
77521;BME280;66633;47.628;19.158;2023-09-12T12:43:41;99614.72;;;31.65;27.51
77521;BME280;66633;47.628;19.158;2023-09-12T12:46:11;99607.78;;;32.02;26.91
77521;BME280;66633;47.628;19.158;2023-09-12T12:48:43;99604.78;;;31.98;28.08
77521;BME280;66633;47.628;19.158;2023-09-12T12:51:24;99604.78;;;31.98;28.08
77521;BME280;66633;47.628;19.158;2023-09-12T12:53:54;99594.69;;;31.89;27.56
77521;BME280;66633;47.628;19.158;2023-09-12T12:56:23;99590.25;;;31.93;27.80
77521;BME280;66633;47.628;19.158;2023-09-12T12:58:50;99589.94;;;31.99;27.69
77521;BME280;66633;47.628;19.158;2023-09-12T13:01:16;99594.16;;;31.87;27.98